sensor_id;sensor_type;location;lat;lon;timestamp;temperature;humidity
13711;DHT22;6927;51.256;9.410;2022-12-01T00:01:41;6.00;99.90
13711;DHT22;6927;51.256;9.410;2022-12-01T00:04:21;5.90;99.90
13711;DHT22;6927;51.256;9.410;2022-12-01T00:07:30;5.90;99.90
13711;DHT22;6927;51.256;9.410;2022-12-01T00:10:24;5.90;99.90
13711;DHT22;6927;51.256;9.410;2022-12-01T00:16:19;5.90;99.90
13711;DHT22;6927;51.256;9.410;2022-12-01T00:19:04;5.90;99.90
13711;DHT22;6927;51.256;9.410;2022-12-01T00:21:30;6.00;99.90
13711;DHT22;6927;51.256;9.410;2022-12-01T00:23:58;5.90;99.90
13711;DHT22;6927;51.256;9.410;2022-12-01T00:26:30;6.00;99.90
13711;DHT22;6927;51.256;9.410;2022-12-01T00:29:00;5.90;99.90
13711;DHT22;6927;51.256;9.410;2022-12-01T00:31:37;5.90;99.90
13711;DHT22;6927;51.256;9.410;2022-12-01T00:34:06;5.90;99.90
13711;DHT22;6927;51.256;9.410;2022-12-01T00:36:37;5.90;99.90
13711;DHT22;6927;51.256;9.410;2022-12-01T00:39:12;5.90;99.90
13711;DHT22;6927;51.256;9.410;2022-12-01T00:41:43;5.90;99.90
13711;DHT22;6927;51.256;9.410;2022-12-01T00:44:14;5.90;99.90
13711;DHT22;6927;51.256;9.410;2022-12-01T00:46:43;5.90;99.90
13711;DHT22;6927;51.256;9.410;2022-12-01T00:49:14;5.90;99.90
13711;DHT22;6927;51.256;9.410;2022-12-01T00:51:40;5.90;99.90
13711;DHT22;6927;51.256;9.410;2022-12-01T00:54:15;5.90;99.90
13711;DHT22;6927;51.256;9.410;2022-12-01T00:56:46;5.90;99.90
13711;DHT22;6927;51.256;9.410;2022-12-01T00:59:15;5.80;99.90
13711;DHT22;6927;51.256;9.410;2022-12-01T01:01:44;5.80;99.90
13711;DHT22;6927;51.256;9.410;2022-12-01T01:04:20;5.90;99.90
13711;DHT22;6927;51.256;9.410;2022-12-01T01:06:50;5.90;99.90
13711;DHT22;6927;51.256;9.410;2022-12-01T01:09:23;5.80;99.90
13711;DHT22;6927;51.256;9.410;2022-12-01T01:11:57;5.90;99.90
13711;DHT22;6927;51.256;9.410;2022-12-01T01:14:25;5.80;99.90
13711;DHT22;6927;51.256;9.410;2022-12-01T01:17:05;5.80;99.90
13711;DHT22;6927;51.256;9.410;2022-12-01T01:19:31;5.80;99.90
13711;DHT22;6927;51.256;9.410;2022-12-01T01:21:56;5.80;99.90
13711;DHT22;6927;51.256;9.410;2022-12-01T01:24:22;5.80;99.90
13711;DHT22;6927;51.256;9.410;2022-12-01T01:26:50;5.80;99.90
13711;DHT22;6927;51.256;9.410;2022-12-01T01:29:19;5.90;99.90
13711;DHT22;6927;51.256;9.410;2022-12-01T01:31:44;5.90;99.90
13711;DHT22;6927;51.256;9.410;2022-12-01T01:34:22;5.90;99.90
13711;DHT22;6927;51.256;9.410;2022-12-01T01:36:53;5.90;99.90
13711;DHT22;6927;51.256;9.410;2022-12-01T01:39:18;5.90;99.90
13711;DHT22;6927;51.256;9.410;2022-12-01T01:41:44;5.90;99.90
13711;DHT22;6927;51.256;9.410;2022-12-01T01:47:31;5.90;99.90
13711;DHT22;6927;51.256;9.410;2022-12-01T01:50:01;5.90;99.90
13711;DHT22;6927;51.256;9.410;2022-12-01T01:52:35;5.80;99.90
13711;DHT22;6927;51.256;9.410;2022-12-01T01:55:02;5.80;99.90
13711;DHT22;6927;51.256;9.410;2022-12-01T01:57:30;5.80;99.90
13711;DHT22;6927;51.256;9.410;2022-12-01T02:00:02;5.80;99.90
13711;DHT22;6927;51.256;9.410;2022-12-01T02:02:30;5.80;99.90
13711;DHT22;6927;51.256;9.410;2022-12-01T02:05:02;5.70;99.90
13711;DHT22;6927;51.256;9.410;2022-12-01T02:07:28;5.80;99.90
13711;DHT22;6927;51.256;9.410;2022-12-01T02:09:54;5.80;99.90
13711;DHT22;6927;51.256;9.410;2022-12-01T02:27:13;5.70;99.90
13711;DHT22;6927;51.256;9.410;2022-12-01T02:41:14;5.70;99.90
13711;DHT22;6927;51.256;9.410;2022-12-01T02:44:21;5.70;99.90
13711;DHT22;6927;51.256;9.410;2022-12-01T02:47:09;5.70;99.90
13711;DHT22;6927;51.256;9.410;2022-12-01T02:49:41;5.70;99.90
13711;DHT22;6927;51.256;9.410;2022-12-01T02:52:10;5.70;99.90
13711;DHT22;6927;51.256;9.410;2022-12-01T02:54:43;5.70;99.90
13711;DHT22;6927;51.256;9.410;2022-12-01T02:57:13;5.70;99.90
13711;DHT22;6927;51.256;9.410;2022-12-01T02:59:44;5.70;99.90
13711;DHT22;6927;51.256;9.410;2022-12-01T03:02:45;5.70;99.90
13711;DHT22;6927;51.256;9.410;2022-12-01T03:05:50;5.60;99.90
13711;DHT22;6927;51.256;9.410;2022-12-01T03:11:35;5.60;99.90
13711;DHT22;6927;51.256;9.410;2022-12-01T03:14:40;5.70;99.90
13711;DHT22;6927;51.256;9.410;2022-12-01T03:17:13;5.60;99.90
13711;DHT22;6927;51.256;9.410;2022-12-01T03:19:49;5.60;99.90
13711;DHT22;6927;51.256;9.410;2022-12-01T03:22:25;5.60;99.90
13711;DHT22;6927;51.256;9.410;2022-12-01T03:24:57;5.60;99.90
13711;DHT22;6927;51.256;9.410;2022-12-01T03:27:27;5.50;99.90
13711;DHT22;6927;51.256;9.410;2022-12-01T03:29:56;5.60;99.90
13711;DHT22;6927;51.256;9.410;2022-12-01T03:32:35;5.60;99.90
13711;DHT22;6927;51.256;9.410;2022-12-01T03:35:14;5.50;99.90
13711;DHT22;6927;51.256;9.410;2022-12-01T03:37:58;5.50;99.90
13711;DHT22;6927;51.256;9.410;2022-12-01T03:40:27;5.50;99.90
13711;DHT22;6927;51.256;9.410;2022-12-01T03:43:00;5.60;99.90
13711;DHT22;6927;51.256;9.410;2022-12-01T03:45:46;5.50;99.90
13711;DHT22;6927;51.256;9.410;2022-12-01T03:48:16;5.50;99.90
13711;DHT22;6927;51.256;9.410;2022-12-01T03:51:15;5.50;99.90
13711;DHT22;6927;51.256;9.410;2022-12-01T03:56:54;5.50;99.90
13711;DHT22;6927;51.256;9.410;2022-12-01T03:59:25;5.50;99.90
13711;DHT22;6927;51.256;9.410;2022-12-01T04:01:52;5.50;99.90
13711;DHT22;6927;51.256;9.410;2022-12-01T04:04:20;5.50;99.90
13711;DHT22;6927;51.256;9.410;2022-12-01T04:06:48;5.40;99.90
13711;DHT22;6927;51.256;9.410;2022-12-01T04:09:19;5.40;99.90
13711;DHT22;6927;51.256;9.410;2022-12-01T04:11:52;5.40;99.90
13711;DHT22;6927;51.256;9.410;2022-12-01T04:14:39;5.40;99.90
13711;DHT22;6927;51.256;9.410;2022-12-01T04:17:07;5.40;99.90
13711;DHT22;6927;51.256;9.410;2022-12-01T04:19:35;5.40;99.90
13711;DHT22;6927;51.256;9.410;2022-12-01T04:22:04;5.40;99.90
13711;DHT22;6927;51.256;9.410;2022-12-01T04:24:30;5.30;99.90
13711;DHT22;6927;51.256;9.410;2022-12-01T04:26:59;5.30;99.90
13711;DHT22;6927;51.256;9.410;2022-12-01T04:29:27;5.30;99.90
13711;DHT22;6927;51.256;9.410;2022-12-01T04:31:53;5.30;99.90
13711;DHT22;6927;51.256;9.410;2022-12-01T04:34:18;5.30;99.90
13711;DHT22;6927;51.256;9.410;2022-12-01T04:36:44;5.30;99.90
13711;DHT22;6927;51.256;9.410;2022-12-01T04:39:10;5.20;99.90
13711;DHT22;6927;51.256;9.410;2022-12-01T04:41:35;5.20;99.90
13711;DHT22;6927;51.256;9.410;2022-12-01T04:44:01;5.20;99.90
13711;DHT22;6927;51.256;9.410;2022-12-01T04:46:27;5.10;99.90
13711;DHT22;6927;51.256;9.410;2022-12-01T04:48:52;5.20;99.90
13711;DHT22;6927;51.256;9.410;2022-12-01T04:51:19;5.10;99.90
13711;DHT22;6927;51.256;9.410;2022-12-01T04:53:45;5.10;99.90
13711;DHT22;6927;51.256;9.410;2022-12-01T04:56:13;5.20;99.90
13711;DHT22;6927;51.256;9.410;2022-12-01T04:58:39;5.10;99.90
13711;DHT22;6927;51.256;9.410;2022-12-01T05:01:11;5.10;99.90
13711;DHT22;6927;51.256;9.410;2022-12-01T05:03:38;5.10;99.90
13711;DHT22;6927;51.256;9.410;2022-12-01T05:06:09;5.10;99.90
13711;DHT22;6927;51.256;9.410;2022-12-01T05:08:36;5.10;99.90
13711;DHT22;6927;51.256;9.410;2022-12-01T05:11:02;5.10;99.90
13711;DHT22;6927;51.256;9.410;2022-12-01T05:13:29;5.10;99.90
13711;DHT22;6927;51.256;9.410;2022-12-01T05:16:10;5.00;99.90
13711;DHT22;6927;51.256;9.410;2022-12-01T05:18:36;5.10;99.90
13711;DHT22;6927;51.256;9.410;2022-12-01T05:21:04;5.00;99.90
13711;DHT22;6927;51.256;9.410;2022-12-01T05:23:33;5.00;99.90
13711;DHT22;6927;51.256;9.410;2022-12-01T05:26:00;5.00;99.90
13711;DHT22;6927;51.256;9.410;2022-12-01T05:28:26;5.10;99.90
13711;DHT22;6927;51.256;9.410;2022-12-01T05:30:52;5.10;99.90
13711;DHT22;6927;51.256;9.410;2022-12-01T05:33:22;5.10;99.90
13711;DHT22;6927;51.256;9.410;2022-12-01T05:35:49;5.00;99.90
13711;DHT22;6927;51.256;9.410;2022-12-01T05:38:15;5.10;99.90
13711;DHT22;6927;51.256;9.410;2022-12-01T05:40:40;4.90;99.90
13711;DHT22;6927;51.256;9.410;2022-12-01T05:43:06;4.90;99.90
13711;DHT22;6927;51.256;9.410;2022-12-01T05:45:33;4.80;99.90
13711;DHT22;6927;51.256;9.410;2022-12-01T05:48:00;4.80;99.90
13711;DHT22;6927;51.256;9.410;2022-12-01T05:50:27;4.80;99.90
13711;DHT22;6927;51.256;9.410;2022-12-01T05:52:53;4.80;99.90
13711;DHT22;6927;51.256;9.410;2022-12-01T05:55:19;4.80;99.90
13711;DHT22;6927;51.256;9.410;2022-12-01T05:57:45;4.80;99.90
13711;DHT22;6927;51.256;9.410;2022-12-01T06:00:13;4.80;99.90
13711;DHT22;6927;51.256;9.410;2022-12-01T06:02:40;4.70;99.90
13711;DHT22;6927;51.256;9.410;2022-12-01T06:05:07;4.70;99.90
13711;DHT22;6927;51.256;9.410;2022-12-01T06:07:33;4.60;99.90
13711;DHT22;6927;51.256;9.410;2022-12-01T06:10:00;4.70;99.90
13711;DHT22;6927;51.256;9.410;2022-12-01T06:12:26;4.70;99.90
13711;DHT22;6927;51.256;9.410;2022-12-01T06:14:51;4.60;99.90
13711;DHT22;6927;51.256;9.410;2022-12-01T06:17:17;4.60;99.90
13711;DHT22;6927;51.256;9.410;2022-12-01T06:19:42;4.70;99.90
13711;DHT22;6927;51.256;9.410;2022-12-01T06:22:08;4.70;99.90
13711;DHT22;6927;51.256;9.410;2022-12-01T06:24:34;4.70;99.90
13711;DHT22;6927;51.256;9.410;2022-12-01T06:26:59;4.70;99.90
13711;DHT22;6927;51.256;9.410;2022-12-01T06:29:25;4.70;99.90
13711;DHT22;6927;51.256;9.410;2022-12-01T06:31:51;4.70;99.90
13711;DHT22;6927;51.256;9.410;2022-12-01T06:34:16;4.70;99.90
13711;DHT22;6927;51.256;9.410;2022-12-01T06:36:42;4.70;99.90
13711;DHT22;6927;51.256;9.410;2022-12-01T06:39:08;4.70;99.90
13711;DHT22;6927;51.256;9.410;2022-12-01T06:41:35;4.70;99.90
13711;DHT22;6927;51.256;9.410;2022-12-01T06:44:01;4.70;99.90
13711;DHT22;6927;51.256;9.410;2022-12-01T06:46:26;4.70;99.90
13711;DHT22;6927;51.256;9.410;2022-12-01T06:48:52;4.60;99.90
13711;DHT22;6927;51.256;9.410;2022-12-01T06:51:17;4.60;99.90
13711;DHT22;6927;51.256;9.410;2022-12-01T06:53:43;4.70;99.90
13711;DHT22;6927;51.256;9.410;2022-12-01T06:56:08;4.60;99.90
13711;DHT22;6927;51.256;9.410;2022-12-01T06:58:34;4.70;99.90
13711;DHT22;6927;51.256;9.410;2022-12-01T07:01:00;4.60;99.90
13711;DHT22;6927;51.256;9.410;2022-12-01T07:03:31;4.60;99.90
13711;DHT22;6927;51.256;9.410;2022-12-01T07:05:58;4.60;99.90
13711;DHT22;6927;51.256;9.410;2022-12-01T07:08:25;4.60;99.90
13711;DHT22;6927;51.256;9.410;2022-12-01T07:10:58;4.60;99.90
13711;DHT22;6927;51.256;9.410;2022-12-01T07:13:23;4.60;99.90
13711;DHT22;6927;51.256;9.410;2022-12-01T07:15:49;4.60;99.90
13711;DHT22;6927;51.256;9.410;2022-12-01T07:18:14;4.50;99.90
13711;DHT22;6927;51.256;9.410;2022-12-01T07:20:40;4.50;99.90
13711;DHT22;6927;51.256;9.410;2022-12-01T07:23:06;4.50;99.90
13711;DHT22;6927;51.256;9.410;2022-12-01T07:25:31;4.50;99.90
13711;DHT22;6927;51.256;9.410;2022-12-01T07:27:57;4.50;99.90
13711;DHT22;6927;51.256;9.410;2022-12-01T07:30:22;4.50;99.90
13711;DHT22;6927;51.256;9.410;2022-12-01T07:32:48;4.60;99.90
13711;DHT22;6927;51.256;9.410;2022-12-01T07:35:13;4.50;99.90
13711;DHT22;6927;51.256;9.410;2022-12-01T07:37:39;4.60;99.90
13711;DHT22;6927;51.256;9.410;2022-12-01T07:40:05;4.60;99.90
13711;DHT22;6927;51.256;9.410;2022-12-01T07:42:31;4.60;99.90
13711;DHT22;6927;51.256;9.410;2022-12-01T07:44:56;4.60;99.90
13711;DHT22;6927;51.256;9.410;2022-12-01T07:47:22;4.60;99.90
13711;DHT22;6927;51.256;9.410;2022-12-01T07:49:47;4.60;99.90
13711;DHT22;6927;51.256;9.410;2022-12-01T07:52:14;4.50;99.90
13711;DHT22;6927;51.256;9.410;2022-12-01T07:54:39;4.50;99.90
13711;DHT22;6927;51.256;9.410;2022-12-01T07:57:05;4.50;99.90
13711;DHT22;6927;51.256;9.410;2022-12-01T07:59:30;4.60;99.90
13711;DHT22;6927;51.256;9.410;2022-12-01T08:01:56;4.60;99.90
13711;DHT22;6927;51.256;9.410;2022-12-01T08:04:22;4.60;99.90
13711;DHT22;6927;51.256;9.410;2022-12-01T08:06:47;4.60;99.90
13711;DHT22;6927;51.256;9.410;2022-12-01T08:09:13;4.60;99.90
13711;DHT22;6927;51.256;9.410;2022-12-01T08:11:38;4.60;99.90
13711;DHT22;6927;51.256;9.410;2022-12-01T08:14:04;4.60;99.90
13711;DHT22;6927;51.256;9.410;2022-12-01T08:16:29;4.50;99.90
13711;DHT22;6927;51.256;9.410;2022-12-01T08:18:55;4.50;99.90
13711;DHT22;6927;51.256;9.410;2022-12-01T08:21:22;4.50;99.90
13711;DHT22;6927;51.256;9.410;2022-12-01T08:23:54;4.50;99.90
13711;DHT22;6927;51.256;9.410;2022-12-01T08:26:22;4.60;99.90
13711;DHT22;6927;51.256;9.410;2022-12-01T08:28:48;4.50;99.90
13711;DHT22;6927;51.256;9.410;2022-12-01T08:31:26;4.50;99.90
13711;DHT22;6927;51.256;9.410;2022-12-01T08:33:52;4.50;99.90
13711;DHT22;6927;51.256;9.410;2022-12-01T08:36:19;4.40;99.90
13711;DHT22;6927;51.256;9.410;2022-12-01T08:38:47;4.30;99.90
13711;DHT22;6927;51.256;9.410;2022-12-01T08:41:13;4.30;99.90
13711;DHT22;6927;51.256;9.410;2022-12-01T08:43:40;4.10;99.90
13711;DHT22;6927;51.256;9.410;2022-12-01T08:46:12;4.20;99.90
13711;DHT22;6927;51.256;9.410;2022-12-01T08:48:38;4.20;99.90
13711;DHT22;6927;51.256;9.410;2022-12-01T08:51:13;4.30;99.90
13711;DHT22;6927;51.256;9.410;2022-12-01T08:53:41;4.20;99.90
13711;DHT22;6927;51.256;9.410;2022-12-01T08:58:43;4.10;99.90
13711;DHT22;6927;51.256;9.410;2022-12-01T09:01:11;4.10;99.90
13711;DHT22;6927;51.256;9.410;2022-12-01T09:03:38;4.10;99.90
13711;DHT22;6927;51.256;9.410;2022-12-01T09:06:12;4.10;99.90
13711;DHT22;6927;51.256;9.410;2022-12-01T09:08:39;4.10;99.90
13711;DHT22;6927;51.256;9.410;2022-12-01T09:11:08;4.10;99.90
13711;DHT22;6927;51.256;9.410;2022-12-01T09:13:35;4.10;99.90
13711;DHT22;6927;51.256;9.410;2022-12-01T09:16:04;4.10;99.90
13711;DHT22;6927;51.256;9.410;2022-12-01T09:18:30;4.20;99.90
13711;DHT22;6927;51.256;9.410;2022-12-01T09:20:57;4.20;99.90
13711;DHT22;6927;51.256;9.410;2022-12-01T09:23:23;4.30;99.90
13711;DHT22;6927;51.256;9.410;2022-12-01T09:25:50;4.30;99.90
13711;DHT22;6927;51.256;9.410;2022-12-01T09:28:17;4.30;99.90
13711;DHT22;6927;51.256;9.410;2022-12-01T09:30:44;4.30;99.90
13711;DHT22;6927;51.256;9.410;2022-12-01T09:33:10;4.30;99.90
13711;DHT22;6927;51.256;9.410;2022-12-01T09:35:35;4.30;99.90
13711;DHT22;6927;51.256;9.410;2022-12-01T09:38:01;4.30;99.90
13711;DHT22;6927;51.256;9.410;2022-12-01T09:40:34;4.30;99.90
13711;DHT22;6927;51.256;9.410;2022-12-01T09:43:03;4.30;99.90
13711;DHT22;6927;51.256;9.410;2022-12-01T09:45:40;4.30;99.90
13711;DHT22;6927;51.256;9.410;2022-12-01T09:51:22;4.20;99.90
13711;DHT22;6927;51.256;9.410;2022-12-01T09:53:57;4.30;99.90
13711;DHT22;6927;51.256;9.410;2022-12-01T09:56:43;4.20;99.90
13711;DHT22;6927;51.256;9.410;2022-12-01T09:59:43;4.30;99.90
13711;DHT22;6927;51.256;9.410;2022-12-01T10:05:21;4.20;99.90
13711;DHT22;6927;51.256;9.410;2022-12-01T10:08:23;4.10;99.90
13711;DHT22;6927;51.256;9.410;2022-12-01T10:11:15;4.10;99.90
13711;DHT22;6927;51.256;9.410;2022-12-01T10:13:41;4.10;99.90
13711;DHT22;6927;51.256;9.410;2022-12-01T10:19:23;4.00;99.90
13711;DHT22;6927;51.256;9.410;2022-12-01T10:27:41;3.90;99.90
13711;DHT22;6927;51.256;9.410;2022-12-01T10:30:17;4.00;99.90
13711;DHT22;6927;51.256;9.410;2022-12-01T10:32:52;4.10;99.90
13711;DHT22;6927;51.256;9.410;2022-12-01T10:35:23;4.10;99.90
13711;DHT22;6927;51.256;9.410;2022-12-01T10:37:54;4.00;99.90
13711;DHT22;6927;51.256;9.410;2022-12-01T10:40:20;3.90;99.90
13711;DHT22;6927;51.256;9.410;2022-12-01T10:42:49;3.90;99.90
13711;DHT22;6927;51.256;9.410;2022-12-01T10:45:26;3.90;99.90
13711;DHT22;6927;51.256;9.410;2022-12-01T10:50:40;3.90;99.90
13711;DHT22;6927;51.256;9.410;2022-12-01T10:53:05;3.90;99.90
13711;DHT22;6927;51.256;9.410;2022-12-01T10:55:34;3.90;99.90
13711;DHT22;6927;51.256;9.410;2022-12-01T10:58:11;3.90;99.90
13711;DHT22;6927;51.256;9.410;2022-12-01T11:00:40;4.00;99.90
13711;DHT22;6927;51.256;9.410;2022-12-01T11:03:13;4.00;99.90
13711;DHT22;6927;51.256;9.410;2022-12-01T11:05:41;4.00;99.90
13711;DHT22;6927;51.256;9.410;2022-12-01T11:08:20;4.10;99.90
13711;DHT22;6927;51.256;9.410;2022-12-01T11:10:47;4.10;99.90
13711;DHT22;6927;51.256;9.410;2022-12-01T11:13:21;4.20;99.90
13711;DHT22;6927;51.256;9.410;2022-12-01T11:15:58;4.20;99.90
13711;DHT22;6927;51.256;9.410;2022-12-01T11:18:35;4.20;99.90
13711;DHT22;6927;51.256;9.410;2022-12-01T11:23:50;4.20;99.90
13711;DHT22;6927;51.256;9.410;2022-12-01T11:26:25;4.30;99.90
13711;DHT22;6927;51.256;9.410;2022-12-01T11:29:07;4.20;99.90
13711;DHT22;6927;51.256;9.410;2022-12-01T11:31:49;4.20;99.90
13711;DHT22;6927;51.256;9.410;2022-12-01T11:34:27;4.20;99.90
13711;DHT22;6927;51.256;9.410;2022-12-01T11:36:56;4.20;99.90
13711;DHT22;6927;51.256;9.410;2022-12-01T11:39:36;4.30;99.90
13711;DHT22;6927;51.256;9.410;2022-12-01T11:42:24;4.40;99.90
13711;DHT22;6927;51.256;9.410;2022-12-01T11:44:56;4.50;99.90
13711;DHT22;6927;51.256;9.410;2022-12-01T11:47:24;4.40;99.90
13711;DHT22;6927;51.256;9.410;2022-12-01T11:49:53;4.50;99.90
13711;DHT22;6927;51.256;9.410;2022-12-01T11:57:28;4.60;99.90
13711;DHT22;6927;51.256;9.410;2022-12-01T11:59:54;4.60;99.90
13711;DHT22;6927;51.256;9.410;2022-12-01T12:02:29;4.60;99.90
13711;DHT22;6927;51.256;9.410;2022-12-01T12:05:35;4.60;99.90
13711;DHT22;6927;51.256;9.410;2022-12-01T12:11:11;4.60;99.90
13711;DHT22;6927;51.256;9.410;2022-12-01T12:19:00;4.60;99.90
13711;DHT22;6927;51.256;9.410;2022-12-01T12:24:23;4.60;99.90
13711;DHT22;6927;51.256;9.410;2022-12-01T12:30:30;4.50;99.90
13711;DHT22;6927;51.256;9.410;2022-12-01T12:33:40;4.50;99.90
13711;DHT22;6927;51.256;9.410;2022-12-01T12:36:46;4.60;99.90
13711;DHT22;6927;51.256;9.410;2022-12-01T12:43:25;4.50;99.90
13711;DHT22;6927;51.256;9.410;2022-12-01T12:48:52;4.50;99.90
13711;DHT22;6927;51.256;9.410;2022-12-01T12:51:41;4.40;99.90
13711;DHT22;6927;51.256;9.410;2022-12-01T12:54:24;4.30;99.90
13711;DHT22;6927;51.256;9.410;2022-12-01T13:02:51;4.20;99.90
13711;DHT22;6927;51.256;9.410;2022-12-01T13:05:35;4.20;99.90
13711;DHT22;6927;51.256;9.410;2022-12-01T13:10:57;4.30;99.90
13711;DHT22;6927;51.256;9.410;2022-12-01T13:13:35;4.30;99.90
13711;DHT22;6927;51.256;9.410;2022-12-01T13:16:02;4.30;99.90
13711;DHT22;6927;51.256;9.410;2022-12-01T13:18:40;4.30;99.90
13711;DHT22;6927;51.256;9.410;2022-12-01T13:21:16;4.30;99.90
13711;DHT22;6927;51.256;9.410;2022-12-01T13:23:44;4.30;99.90
13711;DHT22;6927;51.256;9.410;2022-12-01T13:26:11;4.30;99.90
13711;DHT22;6927;51.256;9.410;2022-12-01T13:28:45;4.40;99.90
13711;DHT22;6927;51.256;9.410;2022-12-01T13:31:13;4.30;99.90
13711;DHT22;6927;51.256;9.410;2022-12-01T13:34:01;4.30;99.90
13711;DHT22;6927;51.256;9.410;2022-12-01T13:36:28;4.30;99.90
13711;DHT22;6927;51.256;9.410;2022-12-01T13:39:03;4.30;99.90
13711;DHT22;6927;51.256;9.410;2022-12-01T13:41:33;4.40;99.90
13711;DHT22;6927;51.256;9.410;2022-12-01T13:49:45;4.30;99.90
13711;DHT22;6927;51.256;9.410;2022-12-01T13:57:29;4.40;99.90
13711;DHT22;6927;51.256;9.410;2022-12-01T14:02:34;4.30;99.90
13711;DHT22;6927;51.256;9.410;2022-12-01T14:07:49;4.40;99.90
13711;DHT22;6927;51.256;9.410;2022-12-01T14:10:31;4.30;99.90
13711;DHT22;6927;51.256;9.410;2022-12-01T14:13:02;4.30;99.90
13711;DHT22;6927;51.256;9.410;2022-12-01T14:18:04;4.40;99.90
13711;DHT22;6927;51.256;9.410;2022-12-01T14:20:36;4.40;99.90
13711;DHT22;6927;51.256;9.410;2022-12-01T14:23:25;4.30;99.90
13711;DHT22;6927;51.256;9.410;2022-12-01T14:26:17;4.30;99.90
13711;DHT22;6927;51.256;9.410;2022-12-01T14:34:17;4.30;99.90
13711;DHT22;6927;51.256;9.410;2022-12-01T14:36:48;4.20;99.90
13711;DHT22;6927;51.256;9.410;2022-12-01T14:39:27;4.20;99.90
13711;DHT22;6927;51.256;9.410;2022-12-01T14:42:20;4.20;99.90
13711;DHT22;6927;51.256;9.410;2022-12-01T14:45:25;4.10;99.90
13711;DHT22;6927;51.256;9.410;2022-12-01T14:47:58;4.10;99.90
13711;DHT22;6927;51.256;9.410;2022-12-01T14:50:33;4.10;99.90
13711;DHT22;6927;51.256;9.410;2022-12-01T14:53:28;4.10;99.90
13711;DHT22;6927;51.256;9.410;2022-12-01T14:55:58;4.10;99.90
13711;DHT22;6927;51.256;9.410;2022-12-01T14:58:29;4.10;99.90
13711;DHT22;6927;51.256;9.410;2022-12-01T15:01:00;4.10;99.90
13711;DHT22;6927;51.256;9.410;2022-12-01T15:03:34;4.10;99.90
13711;DHT22;6927;51.256;9.410;2022-12-01T15:06:00;4.10;99.90
13711;DHT22;6927;51.256;9.410;2022-12-01T15:08:28;4.10;99.90
13711;DHT22;6927;51.256;9.410;2022-12-01T15:11:01;4.10;99.90
13711;DHT22;6927;51.256;9.410;2022-12-01T15:16:12;4.10;99.90
13711;DHT22;6927;51.256;9.410;2022-12-01T15:18:38;4.10;99.90
13711;DHT22;6927;51.256;9.410;2022-12-01T15:24:00;4.10;99.90
13711;DHT22;6927;51.256;9.410;2022-12-01T15:26:46;4.00;99.90
13711;DHT22;6927;51.256;9.410;2022-12-01T15:29:30;4.10;99.90
13711;DHT22;6927;51.256;9.410;2022-12-01T15:32:01;4.10;99.90
13711;DHT22;6927;51.256;9.410;2022-12-01T15:34:38;4.10;99.90
13711;DHT22;6927;51.256;9.410;2022-12-01T15:37:18;4.10;99.90
13711;DHT22;6927;51.256;9.410;2022-12-01T15:39:50;4.10;99.90
13711;DHT22;6927;51.256;9.410;2022-12-01T15:42:28;4.00;99.90
13711;DHT22;6927;51.256;9.410;2022-12-01T15:45:20;4.00;99.90
13711;DHT22;6927;51.256;9.410;2022-12-01T15:47:51;4.00;99.90
13711;DHT22;6927;51.256;9.410;2022-12-01T15:50:33;4.00;99.90
13711;DHT22;6927;51.256;9.410;2022-12-01T15:53:03;4.00;99.90
13711;DHT22;6927;51.256;9.410;2022-12-01T15:55:36;4.00;99.90
13711;DHT22;6927;51.256;9.410;2022-12-01T15:58:07;4.00;99.90
13711;DHT22;6927;51.256;9.410;2022-12-01T16:00:32;4.00;99.90
13711;DHT22;6927;51.256;9.410;2022-12-01T16:02:59;3.90;99.90
13711;DHT22;6927;51.256;9.410;2022-12-01T16:05:33;4.00;99.90
13711;DHT22;6927;51.256;9.410;2022-12-01T16:08:19;4.00;99.90
13711;DHT22;6927;51.256;9.410;2022-12-01T16:10:45;4.00;99.90
13711;DHT22;6927;51.256;9.410;2022-12-01T16:13:46;4.00;99.90
13711;DHT22;6927;51.256;9.410;2022-12-01T16:18:58;4.00;99.90
13711;DHT22;6927;51.256;9.410;2022-12-01T16:21:25;4.00;99.90
13711;DHT22;6927;51.256;9.410;2022-12-01T16:23:59;4.00;99.90
13711;DHT22;6927;51.256;9.410;2022-12-01T16:26:25;3.90;99.90
13711;DHT22;6927;51.256;9.410;2022-12-01T16:28:51;3.90;99.90
13711;DHT22;6927;51.256;9.410;2022-12-01T16:31:18;3.80;99.90
13711;DHT22;6927;51.256;9.410;2022-12-01T16:33:44;3.80;99.90
13711;DHT22;6927;51.256;9.410;2022-12-01T16:36:10;3.80;99.90
13711;DHT22;6927;51.256;9.410;2022-12-01T16:38:35;3.80;99.90
13711;DHT22;6927;51.256;9.410;2022-12-01T16:41:14;3.80;99.90
13711;DHT22;6927;51.256;9.410;2022-12-01T16:43:40;3.80;99.90
13711;DHT22;6927;51.256;9.410;2022-12-01T16:46:09;3.80;99.90
13711;DHT22;6927;51.256;9.410;2022-12-01T16:48:34;3.80;99.90
13711;DHT22;6927;51.256;9.410;2022-12-01T16:51:03;3.80;99.90
13711;DHT22;6927;51.256;9.410;2022-12-01T16:53:30;3.80;99.90
13711;DHT22;6927;51.256;9.410;2022-12-01T16:55:57;3.80;99.90
13711;DHT22;6927;51.256;9.410;2022-12-01T16:58:23;3.80;99.90
13711;DHT22;6927;51.256;9.410;2022-12-01T17:00:49;3.80;99.90
13711;DHT22;6927;51.256;9.410;2022-12-01T17:03:22;3.80;99.90
13711;DHT22;6927;51.256;9.410;2022-12-01T17:05:48;3.80;99.90
13711;DHT22;6927;51.256;9.410;2022-12-01T17:08:15;3.80;99.90
13711;DHT22;6927;51.256;9.410;2022-12-01T17:10:42;3.70;99.90
13711;DHT22;6927;51.256;9.410;2022-12-01T17:13:08;3.70;99.90
13711;DHT22;6927;51.256;9.410;2022-12-01T17:15:34;3.70;99.90
13711;DHT22;6927;51.256;9.410;2022-12-01T17:17:59;3.70;99.90
13711;DHT22;6927;51.256;9.410;2022-12-01T17:20:25;3.70;99.90
13711;DHT22;6927;51.256;9.410;2022-12-01T17:22:58;3.60;99.90
13711;DHT22;6927;51.256;9.410;2022-12-01T17:25:24;3.60;99.90
13711;DHT22;6927;51.256;9.410;2022-12-01T17:28:02;3.70;99.90
13711;DHT22;6927;51.256;9.410;2022-12-01T17:30:28;3.70;99.90
13711;DHT22;6927;51.256;9.410;2022-12-01T17:32:53;3.70;99.90
13711;DHT22;6927;51.256;9.410;2022-12-01T17:35:21;3.70;99.90
13711;DHT22;6927;51.256;9.410;2022-12-01T17:38:00;3.70;99.90
13711;DHT22;6927;51.256;9.410;2022-12-01T17:40:40;3.60;99.90
13711;DHT22;6927;51.256;9.410;2022-12-01T17:43:07;3.50;99.90
13711;DHT22;6927;51.256;9.410;2022-12-01T17:45:32;3.60;99.90
13711;DHT22;6927;51.256;9.410;2022-12-01T17:47:58;3.60;99.90
13711;DHT22;6927;51.256;9.410;2022-12-01T17:50:23;3.60;99.90
13711;DHT22;6927;51.256;9.410;2022-12-01T17:52:49;3.60;99.90
13711;DHT22;6927;51.256;9.410;2022-12-01T17:55:15;3.60;99.90
13711;DHT22;6927;51.256;9.410;2022-12-01T17:57:44;3.60;99.90
13711;DHT22;6927;51.256;9.410;2022-12-01T18:00:15;3.60;99.90
13711;DHT22;6927;51.256;9.410;2022-12-01T18:02:43;3.60;99.90
13711;DHT22;6927;51.256;9.410;2022-12-01T18:05:25;3.50;99.90
13711;DHT22;6927;51.256;9.410;2022-12-01T18:07:56;3.60;99.90
13711;DHT22;6927;51.256;9.410;2022-12-01T18:10:25;3.60;99.90
13711;DHT22;6927;51.256;9.410;2022-12-01T18:13:01;3.60;99.90
13711;DHT22;6927;51.256;9.410;2022-12-01T18:15:27;3.50;99.90
13711;DHT22;6927;51.256;9.410;2022-12-01T18:17:53;3.50;99.90
13711;DHT22;6927;51.256;9.410;2022-12-01T18:20:19;3.40;99.90
13711;DHT22;6927;51.256;9.410;2022-12-01T18:22:45;3.40;99.90
13711;DHT22;6927;51.256;9.410;2022-12-01T18:25:11;3.40;99.90
13711;DHT22;6927;51.256;9.410;2022-12-01T18:27:37;3.40;99.90
13711;DHT22;6927;51.256;9.410;2022-12-01T18:30:03;3.30;99.90
13711;DHT22;6927;51.256;9.410;2022-12-01T18:32:30;3.40;99.90
13711;DHT22;6927;51.256;9.410;2022-12-01T18:34:55;3.40;99.90
13711;DHT22;6927;51.256;9.410;2022-12-01T18:37:21;3.40;99.90
13711;DHT22;6927;51.256;9.410;2022-12-01T18:39:47;3.40;99.90